Airfield :
LOGIN :

Register | Disclaimer

   EN    FR    IT 

 










Legend :    VFR   Marginal VFR   IFR   Intensive IFR   Very Intensive IFR
Visi :
Ceiling :
>= 8 km
>= 3000ft
5 to 8 km
1000 to 3000 ft
1500m to 5 km
500 to 1000 ft
800 to 1500m
200 to 500 ft
< 800m
< 200 ft
Symbols :   Thunderstorms  Fog  Heavy snow  Heavy precipitations  Wind > 20 kt
SIGMETs :     Misc.  Thunderstorms  Icing  Turbulence  Mountain Waves  Volcanic Ashes







- Airport Elevation : 289 ft
- IATA code : ZAD


LDZD - Zadar

CURRENT METAR :
  • 220630Z 15004KT 110V190 CAVOK 15/07 Q1019 NOSIG

EXPIRED METARs :
  • 220600Z 13004KT CAVOK 13/08 Q1019 NOSIG
  • 220530Z 13003KT CAVOK 10/07 Q1019 NOSIG
  • 220500Z 14005KT CAVOK 08/05 Q1019 NOSIG
  • 220430Z 13005KT CAVOK 06/05 Q1018 NOSIG
  • 220400Z 12004KT CAVOK 06/05 Q1018 NOSIG

TAF TAF LDZD
Valid from the 22 at 06:00 until the 23 at 06:00 UTC


220525Z 2206/2306 14005KT 9999 FEW050 TX23/2212Z TN07/2304Z
BECMG 2209/2211 24009KT
BECMG 2215/2217 30005KT
PROB40
TEMPO 2300/2304 4000 BR MIFG
No reported NOTAMs for that airfield.



MET'MAP, your aeronautical weather chart ! - Copyright ORBIFLY December 2007 - Disclaimer

ORBIFLY MET'MAP TEAM :

Programming & Development : Alexandra Zaïnal
Concept & Development : Baudouin d'Aumeries
Co-Development & Prog : Marc-Olivier Méhu
Technical & hardware support : Manuel Goepfert

Contact : metmap@orbifly.com




SOURCES & CREDITS :

   NOAA